sensor_id;sensor_type;location;lat;lon;timestamp;temperature;humidity
16134;DHT22;8172;45.018;5.972;2022-08-19T00:01:26;15.60;74.30
16134;DHT22;8172;45.018;5.972;2022-08-19T00:06:38;15.50;74.30
16134;DHT22;8172;45.018;5.972;2022-08-19T00:11:45;15.50;74.40
16134;DHT22;8172;45.018;5.972;2022-08-19T00:16:53;15.40;74.70
16134;DHT22;8172;45.018;5.972;2022-08-19T00:22:01;15.40;74.70
16134;DHT22;8172;45.018;5.972;2022-08-19T00:27:08;15.40;74.80
16134;DHT22;8172;45.018;5.972;2022-08-19T00:32:17;15.40;74.80
16134;DHT22;8172;45.018;5.972;2022-08-19T00:37:24;15.40;74.80
16134;DHT22;8172;45.018;5.972;2022-08-19T00:42:32;15.40;75.00
16134;DHT22;8172;45.018;5.972;2022-08-19T00:47:40;15.40;75.20
16134;DHT22;8172;45.018;5.972;2022-08-19T00:52:49;15.30;75.30
16134;DHT22;8172;45.018;5.972;2022-08-19T00:58:02;15.20;75.50
16134;DHT22;8172;45.018;5.972;2022-08-19T01:03:09;15.30;75.70
16134;DHT22;8172;45.018;5.972;2022-08-19T01:08:19;15.30;75.70
16134;DHT22;8172;45.018;5.972;2022-08-19T01:13:30;15.40;75.70
16134;DHT22;8172;45.018;5.972;2022-08-19T01:18:40;15.40;75.70
16134;DHT22;8172;45.018;5.972;2022-08-19T01:23:47;15.40;75.70
16134;DHT22;8172;45.018;5.972;2022-08-19T01:28:58;15.40;75.70
16134;DHT22;8172;45.018;5.972;2022-08-19T01:34:07;15.50;75.80
16134;DHT22;8172;45.018;5.972;2022-08-19T01:39:17;15.40;75.90
16134;DHT22;8172;45.018;5.972;2022-08-19T01:44:25;15.40;75.80
16134;DHT22;8172;45.018;5.972;2022-08-19T01:49:32;15.40;75.80
16134;DHT22;8172;45.018;5.972;2022-08-19T01:54:39;15.40;75.90
16134;DHT22;8172;45.018;5.972;2022-08-19T01:59:46;15.40;76.10
16134;DHT22;8172;45.018;5.972;2022-08-19T02:04:53;15.40;76.20
16134;DHT22;8172;45.018;5.972;2022-08-19T02:10:03;15.40;76.20
16134;DHT22;8172;45.018;5.972;2022-08-19T02:15:12;15.40;76.20
16134;DHT22;8172;45.018;5.972;2022-08-19T02:20:19;15.50;76.20
16134;DHT22;8172;45.018;5.972;2022-08-19T02:25:26;15.50;76.40
16134;DHT22;8172;45.018;5.972;2022-08-19T02:30:34;15.50;76.30
16134;DHT22;8172;45.018;5.972;2022-08-19T02:35:43;15.50;76.40
16134;DHT22;8172;45.018;5.972;2022-08-19T02:40:53;15.50;76.40
16134;DHT22;8172;45.018;5.972;2022-08-19T02:46:02;15.50;76.40
16134;DHT22;8172;45.018;5.972;2022-08-19T02:51:09;15.40;76.40
16134;DHT22;8172;45.018;5.972;2022-08-19T02:56:31;15.40;76.60
16134;DHT22;8172;45.018;5.972;2022-08-19T03:01:59;15.40;76.60
16134;DHT22;8172;45.018;5.972;2022-08-19T03:07:06;15.40;76.50
16134;DHT22;8172;45.018;5.972;2022-08-19T03:12:15;15.40;76.40
16134;DHT22;8172;45.018;5.972;2022-08-19T03:17:22;15.40;76.30
16134;DHT22;8172;45.018;5.972;2022-08-19T03:22:29;15.50;76.40
16134;DHT22;8172;45.018;5.972;2022-08-19T03:27:36;15.50;76.50
16134;DHT22;8172;45.018;5.972;2022-08-19T03:32:43;15.50;76.50
16134;DHT22;8172;45.018;5.972;2022-08-19T03:37:50;15.50;76.40
16134;DHT22;8172;45.018;5.972;2022-08-19T03:42:58;15.50;76.50
16134;DHT22;8172;45.018;5.972;2022-08-19T03:48:07;15.40;76.50
16134;DHT22;8172;45.018;5.972;2022-08-19T03:53:14;15.40;76.60
16134;DHT22;8172;45.018;5.972;2022-08-19T03:58:22;15.40;76.60
16134;DHT22;8172;45.018;5.972;2022-08-19T04:03:29;15.40;76.60
16134;DHT22;8172;45.018;5.972;2022-08-19T04:08:36;15.40;76.50
16134;DHT22;8172;45.018;5.972;2022-08-19T04:13:43;15.40;76.50
16134;DHT22;8172;45.018;5.972;2022-08-19T04:18:50;15.40;76.60
16134;DHT22;8172;45.018;5.972;2022-08-19T04:23:58;15.40;76.60
16134;DHT22;8172;45.018;5.972;2022-08-19T04:29:08;15.40;76.60
16134;DHT22;8172;45.018;5.972;2022-08-19T04:34:20;15.40;76.60
16134;DHT22;8172;45.018;5.972;2022-08-19T04:39:30;15.40;76.60
16134;DHT22;8172;45.018;5.972;2022-08-19T04:44:39;15.40;76.70
16134;DHT22;8172;45.018;5.972;2022-08-19T04:49:49;15.40;76.70
16134;DHT22;8172;45.018;5.972;2022-08-19T04:54:55;15.40;76.70
16134;DHT22;8172;45.018;5.972;2022-08-19T05:00:03;15.40;76.80
16134;DHT22;8172;45.018;5.972;2022-08-19T05:05:10;15.40;76.80
16134;DHT22;8172;45.018;5.972;2022-08-19T05:10:18;15.30;76.90
16134;DHT22;8172;45.018;5.972;2022-08-19T05:15:26;15.20;76.90
16134;DHT22;8172;45.018;5.972;2022-08-19T05:20:33;15.20;76.90
16134;DHT22;8172;45.018;5.972;2022-08-19T05:25:42;15.20;77.00
16134;DHT22;8172;45.018;5.972;2022-08-19T05:30:50;15.20;77.00
16134;DHT22;8172;45.018;5.972;2022-08-19T05:35:57;15.30;77.00
16134;DHT22;8172;45.018;5.972;2022-08-19T05:41:06;15.30;77.00
16134;DHT22;8172;45.018;5.972;2022-08-19T05:46:17;15.20;77.10
16134;DHT22;8172;45.018;5.972;2022-08-19T05:51:26;15.20;77.20
16134;DHT22;8172;45.018;5.972;2022-08-19T05:56:35;15.10;77.20
16134;DHT22;8172;45.018;5.972;2022-08-19T06:01:47;15.10;77.40
16134;DHT22;8172;45.018;5.972;2022-08-19T06:06:55;15.00;77.30
16134;DHT22;8172;45.018;5.972;2022-08-19T06:12:03;15.00;77.40
16134;DHT22;8172;45.018;5.972;2022-08-19T06:17:10;15.00;77.60
16134;DHT22;8172;45.018;5.972;2022-08-19T06:22:18;15.00;77.50
16134;DHT22;8172;45.018;5.972;2022-08-19T06:27:26;15.00;77.40
16134;DHT22;8172;45.018;5.972;2022-08-19T06:32:33;15.00;77.50
16134;DHT22;8172;45.018;5.972;2022-08-19T06:37:41;15.00;77.70
16134;DHT22;8172;45.018;5.972;2022-08-19T06:42:49;15.00;77.70
16134;DHT22;8172;45.018;5.972;2022-08-19T06:47:58;15.00;77.70
16134;DHT22;8172;45.018;5.972;2022-08-19T06:53:06;15.00;77.90
16134;DHT22;8172;45.018;5.972;2022-08-19T06:58:13;15.00;78.20
16134;DHT22;8172;45.018;5.972;2022-08-19T07:03:20;15.10;78.10
16134;DHT22;8172;45.018;5.972;2022-08-19T07:08:27;15.20;78.10
16134;DHT22;8172;45.018;5.972;2022-08-19T07:13:35;15.20;78.20
16134;DHT22;8172;45.018;5.972;2022-08-19T07:18:43;15.30;78.10
16134;DHT22;8172;45.018;5.972;2022-08-19T07:23:51;15.30;78.20
16134;DHT22;8172;45.018;5.972;2022-08-19T07:28:59;15.30;78.20
16134;DHT22;8172;45.018;5.972;2022-08-19T07:34:10;15.40;78.20
16134;DHT22;8172;45.018;5.972;2022-08-19T07:39:23;15.40;78.30
16134;DHT22;8172;45.018;5.972;2022-08-19T07:44:29;15.40;78.10
16134;DHT22;8172;45.018;5.972;2022-08-19T07:49:37;15.50;78.10
16134;DHT22;8172;45.018;5.972;2022-08-19T07:54:44;15.50;78.10
16134;DHT22;8172;45.018;5.972;2022-08-19T07:59:51;15.50;78.20
16134;DHT22;8172;45.018;5.972;2022-08-19T08:04:59;15.60;78.30
16134;DHT22;8172;45.018;5.972;2022-08-19T08:10:08;15.70;78.50
16134;DHT22;8172;45.018;5.972;2022-08-19T08:15:17;15.70;78.40
16134;DHT22;8172;45.018;5.972;2022-08-19T08:20:26;15.70;78.50
16134;DHT22;8172;45.018;5.972;2022-08-19T08:25:35;15.70;78.40
16134;DHT22;8172;45.018;5.972;2022-08-19T08:30:43;15.60;78.50
16134;DHT22;8172;45.018;5.972;2022-08-19T08:35:52;15.70;78.70
16134;DHT22;8172;45.018;5.972;2022-08-19T08:41:02;15.80;78.70
16134;DHT22;8172;45.018;5.972;2022-08-19T08:46:15;15.80;78.70
16134;DHT22;8172;45.018;5.972;2022-08-19T08:51:28;15.90;78.50
16134;DHT22;8172;45.018;5.972;2022-08-19T08:56:39;15.80;78.60
16134;DHT22;8172;45.018;5.972;2022-08-19T09:01:47;15.80;78.80
16134;DHT22;8172;45.018;5.972;2022-08-19T09:12:06;15.90;78.80
16134;DHT22;8172;45.018;5.972;2022-08-19T09:17:15;15.90;79.00
16134;DHT22;8172;45.018;5.972;2022-08-19T09:22:22;16.00;79.50
16134;DHT22;8172;45.018;5.972;2022-08-19T09:27:31;16.10;79.80
16134;DHT22;8172;45.018;5.972;2022-08-19T09:32:40;16.20;79.40
16134;DHT22;8172;45.018;5.972;2022-08-19T09:37:49;16.10;79.40
16134;DHT22;8172;45.018;5.972;2022-08-19T09:42:59;16.20;79.90
16134;DHT22;8172;45.018;5.972;2022-08-19T09:48:09;16.40;79.60
16134;DHT22;8172;45.018;5.972;2022-08-19T09:53:18;16.50;79.60
16134;DHT22;8172;45.018;5.972;2022-08-19T09:58:29;16.70;79.40
16134;DHT22;8172;45.018;5.972;2022-08-19T10:03:37;16.80;79.10
16134;DHT22;8172;45.018;5.972;2022-08-19T10:08:45;16.80;78.90
16134;DHT22;8172;45.018;5.972;2022-08-19T10:13:54;16.80;78.80
16134;DHT22;8172;45.018;5.972;2022-08-19T10:19:01;16.80;78.90
16134;DHT22;8172;45.018;5.972;2022-08-19T10:24:10;16.80;79.30
16134;DHT22;8172;45.018;5.972;2022-08-19T10:29:17;17.00;79.70
16134;DHT22;8172;45.018;5.972;2022-08-19T10:34:26;17.10;79.50
16134;DHT22;8172;45.018;5.972;2022-08-19T10:39:35;17.20;79.50
16134;DHT22;8172;45.018;5.972;2022-08-19T10:44:44;17.20;79.10
16134;DHT22;8172;45.018;5.972;2022-08-19T10:49:55;17.20;79.30
16134;DHT22;8172;45.018;5.972;2022-08-19T10:55:05;17.20;79.40
16134;DHT22;8172;45.018;5.972;2022-08-19T11:00:15;17.20;79.20
16134;DHT22;8172;45.018;5.972;2022-08-19T11:05:22;17.20;79.30
16134;DHT22;8172;45.018;5.972;2022-08-19T11:10:29;17.20;79.40
16134;DHT22;8172;45.018;5.972;2022-08-19T11:15:36;17.20;79.60
16134;DHT22;8172;45.018;5.972;2022-08-19T11:20:44;17.30;79.50
16134;DHT22;8172;45.018;5.972;2022-08-19T11:25:52;17.40;79.20
16134;DHT22;8172;45.018;5.972;2022-08-19T11:31:00;17.40;78.90
16134;DHT22;8172;45.018;5.972;2022-08-19T11:36:09;17.50;78.80
16134;DHT22;8172;45.018;5.972;2022-08-19T11:41:20;17.50;79.10
16134;DHT22;8172;45.018;5.972;2022-08-19T11:46:29;17.50;79.40
16134;DHT22;8172;45.018;5.972;2022-08-19T11:51:37;17.50;79.40
16134;DHT22;8172;45.018;5.972;2022-08-19T11:56:44;17.50;79.40
16134;DHT22;8172;45.018;5.972;2022-08-19T12:01:53;17.50;79.50
16134;DHT22;8172;45.018;5.972;2022-08-19T12:07:02;17.40;79.30
16134;DHT22;8172;45.018;5.972;2022-08-19T12:12:09;17.40;79.30
16134;DHT22;8172;45.018;5.972;2022-08-19T12:17:16;17.40;79.40
16134;DHT22;8172;45.018;5.972;2022-08-19T12:22:23;17.40;79.10
16134;DHT22;8172;45.018;5.972;2022-08-19T12:27:31;17.40;79.30
16134;DHT22;8172;45.018;5.972;2022-08-19T12:32:39;17.40;79.30
16134;DHT22;8172;45.018;5.972;2022-08-19T12:37:48;17.50;79.40
16134;DHT22;8172;45.018;5.972;2022-08-19T12:42:56;17.50;79.40
16134;DHT22;8172;45.018;5.972;2022-08-19T12:48:04;17.50;79.50
16134;DHT22;8172;45.018;5.972;2022-08-19T12:53:14;17.50;79.70
16134;DHT22;8172;45.018;5.972;2022-08-19T12:58:21;17.40;79.70
16134;DHT22;8172;45.018;5.972;2022-08-19T13:03:30;17.30;79.20
16134;DHT22;8172;45.018;5.972;2022-08-19T13:08:39;17.30;79.50
16134;DHT22;8172;45.018;5.972;2022-08-19T13:13:50;17.50;80.00
16134;DHT22;8172;45.018;5.972;2022-08-19T13:18:57;17.70;79.40
16134;DHT22;8172;45.018;5.972;2022-08-19T13:24:04;17.90;78.00
16134;DHT22;8172;45.018;5.972;2022-08-19T13:29:12;18.10;78.80
16134;DHT22;8172;45.018;5.972;2022-08-19T13:39:34;18.50;77.30
16134;DHT22;8172;45.018;5.972;2022-08-19T13:44:42;18.50;77.60
16134;DHT22;8172;45.018;5.972;2022-08-19T13:49:51;18.70;76.20
16134;DHT22;8172;45.018;5.972;2022-08-19T13:54:58;18.70;76.20
16134;DHT22;8172;45.018;5.972;2022-08-19T14:00:08;18.80;76.30
16134;DHT22;8172;45.018;5.972;2022-08-19T14:05:17;18.90;75.30
16134;DHT22;8172;45.018;5.972;2022-08-19T14:10:26;19.00;74.40
16134;DHT22;8172;45.018;5.972;2022-08-19T14:15:34;19.00;73.80
16134;DHT22;8172;45.018;5.972;2022-08-19T14:20:44;18.90;73.20
16134;DHT22;8172;45.018;5.972;2022-08-19T14:25:51;18.80;73.00
16134;DHT22;8172;45.018;5.972;2022-08-19T14:30:58;18.60;72.70
16134;DHT22;8172;45.018;5.972;2022-08-19T14:36:05;18.50;72.80
16134;DHT22;8172;45.018;5.972;2022-08-19T14:41:17;18.40;73.50
16134;DHT22;8172;45.018;5.972;2022-08-19T14:46:26;18.30;73.30
16134;DHT22;8172;45.018;5.972;2022-08-19T14:51:34;18.30;73.40
16134;DHT22;8172;45.018;5.972;2022-08-19T14:56:42;18.30;73.70
16134;DHT22;8172;45.018;5.972;2022-08-19T15:01:49;18.50;74.50
16134;DHT22;8172;45.018;5.972;2022-08-19T15:06:57;18.60;75.00
16134;DHT22;8172;45.018;5.972;2022-08-19T15:12:05;18.70;74.20
16134;DHT22;8172;45.018;5.972;2022-08-19T15:17:13;18.70;75.20
16134;DHT22;8172;45.018;5.972;2022-08-19T15:22:20;18.90;74.70
16134;DHT22;8172;45.018;5.972;2022-08-19T15:27:27;19.00;74.40
16134;DHT22;8172;45.018;5.972;2022-08-19T15:32:35;19.10;73.90
16134;DHT22;8172;45.018;5.972;2022-08-19T15:37:44;19.10;73.90
16134;DHT22;8172;45.018;5.972;2022-08-19T15:42:51;19.00;74.10
16134;DHT22;8172;45.018;5.972;2022-08-19T15:48:00;18.90;74.40
16134;DHT22;8172;45.018;5.972;2022-08-19T15:53:10;18.80;74.20
16134;DHT22;8172;45.018;5.972;2022-08-19T15:58:17;18.70;74.40
16134;DHT22;8172;45.018;5.972;2022-08-19T16:03:27;18.60;74.80
16134;DHT22;8172;45.018;5.972;2022-08-19T16:08:37;18.50;75.40
16134;DHT22;8172;45.018;5.972;2022-08-19T16:13:48;18.30;75.60
16134;DHT22;8172;45.018;5.972;2022-08-19T16:18:58;18.20;76.00
16134;DHT22;8172;45.018;5.972;2022-08-19T16:24:07;18.10;76.30
16134;DHT22;8172;45.018;5.972;2022-08-19T16:29:17;17.90;76.20
16134;DHT22;8172;45.018;5.972;2022-08-19T16:34:26;17.90;76.10
16134;DHT22;8172;45.018;5.972;2022-08-19T16:39:33;17.90;76.50
16134;DHT22;8172;45.018;5.972;2022-08-19T16:44:43;18.00;76.60
16134;DHT22;8172;45.018;5.972;2022-08-19T16:49:51;18.00;76.40
16134;DHT22;8172;45.018;5.972;2022-08-19T16:55:00;18.00;76.40
16134;DHT22;8172;45.018;5.972;2022-08-19T17:00:08;18.00;76.40
16134;DHT22;8172;45.018;5.972;2022-08-19T17:05:17;17.90;76.20
16134;DHT22;8172;45.018;5.972;2022-08-19T17:10:25;17.80;76.10
16134;DHT22;8172;45.018;5.972;2022-08-19T17:15:32;17.70;76.10
16134;DHT22;8172;45.018;5.972;2022-08-19T17:20:41;17.70;76.30
16134;DHT22;8172;45.018;5.972;2022-08-19T17:25:48;17.80;76.30
16134;DHT22;8172;45.018;5.972;2022-08-19T17:30:57;17.80;76.40
16134;DHT22;8172;45.018;5.972;2022-08-19T17:36:03;17.80;76.50
16134;DHT22;8172;45.018;5.972;2022-08-19T17:41:12;17.80;76.30
16134;DHT22;8172;45.018;5.972;2022-08-19T17:46:19;17.80;76.10
16134;DHT22;8172;45.018;5.972;2022-08-19T17:56:36;17.70;76.30
16134;DHT22;8172;45.018;5.972;2022-08-19T18:01:44;17.70;76.40
16134;DHT22;8172;45.018;5.972;2022-08-19T18:06:54;17.70;76.40
16134;DHT22;8172;45.018;5.972;2022-08-19T18:12:02;17.70;76.60
16134;DHT22;8172;45.018;5.972;2022-08-19T18:17:15;17.70;76.60
16134;DHT22;8172;45.018;5.972;2022-08-19T18:22:33;17.70;76.60
16134;DHT22;8172;45.018;5.972;2022-08-19T18:27:34;17.70;76.70
16134;DHT22;8172;45.018;5.972;2022-08-19T18:32:41;17.60;76.70
16134;DHT22;8172;45.018;5.972;2022-08-19T18:37:50;17.60;76.70
16134;DHT22;8172;45.018;5.972;2022-08-19T18:42:57;17.60;76.70
16134;DHT22;8172;45.018;5.972;2022-08-19T18:48:06;17.60;76.80
16134;DHT22;8172;45.018;5.972;2022-08-19T18:53:16;17.50;76.70
16134;DHT22;8172;45.018;5.972;2022-08-19T18:58:27;17.50;76.70
16134;DHT22;8172;45.018;5.972;2022-08-19T19:03:36;17.40;76.50
16134;DHT22;8172;45.018;5.972;2022-08-19T19:08:46;17.30;76.20
16134;DHT22;8172;45.018;5.972;2022-08-19T19:13:53;17.30;76.20
16134;DHT22;8172;45.018;5.972;2022-08-19T19:19:00;17.20;76.10
16134;DHT22;8172;45.018;5.972;2022-08-19T19:24:08;17.20;76.10
16134;DHT22;8172;45.018;5.972;2022-08-19T19:29:19;17.10;76.00
16134;DHT22;8172;45.018;5.972;2022-08-19T19:34:27;17.10;75.90
16134;DHT22;8172;45.018;5.972;2022-08-19T19:39:35;17.00;75.70
16134;DHT22;8172;45.018;5.972;2022-08-19T19:44:43;17.00;75.60
16134;DHT22;8172;45.018;5.972;2022-08-19T19:49:53;16.90;75.40
16134;DHT22;8172;45.018;5.972;2022-08-19T19:55:03;16.80;75.20
16134;DHT22;8172;45.018;5.972;2022-08-19T20:00:11;16.80;75.00
16134;DHT22;8172;45.018;5.972;2022-08-19T20:05:21;16.70;74.90
16134;DHT22;8172;45.018;5.972;2022-08-19T20:10:28;16.70;74.90
16134;DHT22;8172;45.018;5.972;2022-08-19T20:15:37;16.60;74.80
16134;DHT22;8172;45.018;5.972;2022-08-19T20:20:47;16.60;74.90
16134;DHT22;8172;45.018;5.972;2022-08-19T20:25:55;16.50;75.00
16134;DHT22;8172;45.018;5.972;2022-08-19T20:31:01;16.40;75.00
16134;DHT22;8172;45.018;5.972;2022-08-19T20:36:10;16.40;75.00
16134;DHT22;8172;45.018;5.972;2022-08-19T20:41:17;16.30;74.90
16134;DHT22;8172;45.018;5.972;2022-08-19T20:46:25;16.30;75.00
16134;DHT22;8172;45.018;5.972;2022-08-19T20:51:34;16.30;75.10
16134;DHT22;8172;45.018;5.972;2022-08-19T20:56:41;16.20;75.20
16134;DHT22;8172;45.018;5.972;2022-08-19T21:01:48;16.20;75.30
16134;DHT22;8172;45.018;5.972;2022-08-19T21:06:57;16.20;75.30
16134;DHT22;8172;45.018;5.972;2022-08-19T21:12:05;16.20;75.30
16134;DHT22;8172;45.018;5.972;2022-08-19T21:17:13;16.20;75.20
16134;DHT22;8172;45.018;5.972;2022-08-19T21:22:20;16.20;75.20
16134;DHT22;8172;45.018;5.972;2022-08-19T21:27:27;16.10;75.10
16134;DHT22;8172;45.018;5.972;2022-08-19T21:32:34;16.10;75.10
16134;DHT22;8172;45.018;5.972;2022-08-19T21:37:41;16.10;75.10
16134;DHT22;8172;45.018;5.972;2022-08-19T21:42:48;16.10;75.00
16134;DHT22;8172;45.018;5.972;2022-08-19T21:47:56;16.00;74.90
16134;DHT22;8172;45.018;5.972;2022-08-19T21:53:03;16.00;74.90
16134;DHT22;8172;45.018;5.972;2022-08-19T21:58:10;16.00;74.80
16134;DHT22;8172;45.018;5.972;2022-08-19T22:03:18;16.00;74.90
16134;DHT22;8172;45.018;5.972;2022-08-19T22:08:26;15.90;75.00
16134;DHT22;8172;45.018;5.972;2022-08-19T22:13:34;15.90;75.10
16134;DHT22;8172;45.018;5.972;2022-08-19T22:18:45;15.90;75.20
16134;DHT22;8172;45.018;5.972;2022-08-19T22:23:52;15.80;75.20
16134;DHT22;8172;45.018;5.972;2022-08-19T22:28:59;15.80;75.30
16134;DHT22;8172;45.018;5.972;2022-08-19T22:34:06;15.80;75.20
16134;DHT22;8172;45.018;5.972;2022-08-19T22:39:14;15.80;75.10
16134;DHT22;8172;45.018;5.972;2022-08-19T22:44:21;15.80;74.90
16134;DHT22;8172;45.018;5.972;2022-08-19T22:49:28;15.80;74.70
16134;DHT22;8172;45.018;5.972;2022-08-19T22:54:35;15.70;74.60
16134;DHT22;8172;45.018;5.972;2022-08-19T22:59:42;15.70;74.40
16134;DHT22;8172;45.018;5.972;2022-08-19T23:04:50;15.60;74.30
16134;DHT22;8172;45.018;5.972;2022-08-19T23:09:58;15.60;74.30
16134;DHT22;8172;45.018;5.972;2022-08-19T23:15:08;15.60;74.30
16134;DHT22;8172;45.018;5.972;2022-08-19T23:20:16;15.60;74.30
16134;DHT22;8172;45.018;5.972;2022-08-19T23:25:26;15.60;74.20
16134;DHT22;8172;45.018;5.972;2022-08-19T23:30:35;15.50;74.20
16134;DHT22;8172;45.018;5.972;2022-08-19T23:35:42;15.50;74.20
16134;DHT22;8172;45.018;5.972;2022-08-19T23:40:51;15.50;74.30
16134;DHT22;8172;45.018;5.972;2022-08-19T23:46:00;15.50;74.40
16134;DHT22;8172;45.018;5.972;2022-08-19T23:51:11;15.50;74.30
16134;DHT22;8172;45.018;5.972;2022-08-19T23:56:18;15.50;74.20
